Last 24 Hours

UH Manoa Atmospheric Sciences

15 Minute Data | Pacific/Honolulu
as of 5/18/24 2:28 AM HST
Station Date Time Temp (°F) RH (%) Dew Pt (°F) Wind Spd (mph) Wind Dir (°) Wind Gust (mph) Latest Rain (In) Solar Rad (W/m2) Heat Index (°F) Barometric Press (inHg) Daily Rain (In) Daily Min Temp (°F) Daily Max Temp (°F) Daily Max Wind (mph)
UH Manoa Atmospheric Sciences 5/18/24 0215 74.6 93 72.4 3.5 NNE | 32 5.8 0.00 0 74.6 29.97 0.00 74.4 76.6 7.0
UH Manoa Atmospheric Sciences 5/18/24 0200 74.9 93 72.7 3.3 NE | 35 7.0 0.00 0 74.9 29.98 0.00 74.5 76.6 7.0
UH Manoa Atmospheric Sciences 5/18/24 0145 75.0 93 72.7 4.5 NE | 38 6.6 0.00 0 75.0 29.98 0.00 74.8 76.6 6.6
UH Manoa Atmospheric Sciences 5/18/24 0130 75.3 93 73.0 3.2 NE | 36 5.4 0.00 0 75.3 29.99 0.00 75.1 76.6 5.4
UH Manoa Atmospheric Sciences 5/18/24 0115 75.6 92 73.3 2.4 NE | 41 5.1 0.00 0 75.6 30.00 0.00 75.3 76.6 5.1
UH Manoa Atmospheric Sciences 5/18/24 0100 76.0 92 73.6 2.9 NE | 41 4.8 0.00 0 76.0 30.00 0.00 75.8 76.6 4.8
UH Manoa Atmospheric Sciences 5/18/24 0045 76.1 92 73.6 1.2 NNE | 22 2.5 0.00 0 76.1 30.01 0.00 75.8 76.6 2.5
UH Manoa Atmospheric Sciences 5/18/24 0030 76.1 92 73.5 0.7 NE | 46 2.3 0.00 0 76.1 30.01 0.00 75.8 76.6 2.3
UH Manoa Atmospheric Sciences 5/18/24 0015 76.1 92 73.5 0.3 W | 279 2.2 0.00 0 76.1 30.01 0.00 76.0 76.6 2.2
UH Manoa Atmospheric Sciences 5/18/24 0000 76.1 92 73.6 0.8 E | 83 2.9 0.00 0 76.1 30.01 1.39 72.2 83.5 14.8
UH Manoa Atmospheric Sciences 5/17/24 2345 76.2 93 73.9 1.4 ESE | 105 3.7 0.00 0 76.2 30.02 1.39 72.2 83.5 14.8
UH Manoa Atmospheric Sciences 5/17/24 2330 76.0 93 74.0 2.7 ENE | 60 6.9 0.00 0 76.0 30.02 1.39 72.2 83.5 14.8
UH Manoa Atmospheric Sciences 5/17/24 2315 76.0 94 74.1 4.8 NE | 34 7.4 0.00 0 76.0 30.03 1.39 72.2 83.5 14.8
UH Manoa Atmospheric Sciences 5/17/24 2300 76.3 93 74.1 5.8 NE | 36 8.8 0.00 0 76.3 30.03 1.39 72.2 83.5 14.8
UH Manoa Atmospheric Sciences 5/17/24 2245 76.8 92 74.4 5.1 NE | 34 7.6 0.00 0 76.8 30.04 1.39 72.2 83.5 14.8
UH Manoa Atmospheric Sciences 5/17/24 2230 77.1 92 74.6 3.5 NNE | 33 6.2 0.00 0 77.1 30.03 1.39 72.2 83.5 14.8
UH Manoa Atmospheric Sciences 5/17/24 2215 77.1 92 74.5 4.5 NE | 41 6.9 0.00 0 77.1 30.03 1.39 72.2 83.5 14.8
UH Manoa Atmospheric Sciences 5/17/24 2200 77.4 91 74.5 4.4 NE | 39 7.7 0.00 0 77.4 30.03 1.39 72.2 83.5 14.8
UH Manoa Atmospheric Sciences 5/17/24 2145 77.8 90 74.6 0.7 NE | 56 2.8 0.00 0 77.8 30.03 1.39 72.2 83.5 14.8
UH Manoa Atmospheric Sciences 5/17/24 2130 78.0 88 74.3 1.6 E | 79 4.1 0.00 0 78.0 30.03 1.39 72.2 83.5 14.8
UH Manoa Atmospheric Sciences 5/17/24 2115 78.4 87 74.2 1.4 SE | 144 4.8 0.00 0 78.4 30.03 1.39 72.2 83.5 14.8
UH Manoa Atmospheric Sciences 5/17/24 2100 79.1 86 74.4 1.8 SSE | 168 6.6 0.00 0 79.1 30.03 1.39 72.2 83.5 14.8
UH Manoa Atmospheric Sciences 5/17/24 2045 79.0 85 74.2 2.6 S | 177 6.3 0.00 0 79.0 30.02 1.39 72.2 83.5 14.8
UH Manoa Atmospheric Sciences 5/17/24 2030 79.0 85 74.2 2.5 SSW | 193 7.1 0.00 0 79.0 30.02 1.39 72.2 83.5 14.8
UH Manoa Atmospheric Sciences 5/17/24 2015 79.1 85 74.2 2.7 S | 183 7.3 0.00 0 79.1 30.01 1.39 72.2 83.5 14.8
UH Manoa Atmospheric Sciences 5/17/24 2000 79.1 85 74.1 3.8 S | 184 8.4 0.00 0 79.1 30.01 1.39 72.2 83.5 14.8
UH Manoa Atmospheric Sciences 5/17/24 1945 79.2 85 74.2 1.8 S | 182 5.3 0.00 0 79.2 30.00 1.39 72.2 83.5 14.8
UH Manoa Atmospheric Sciences 5/17/24 1930 79.1 84 74.0 3.7 S | 179 8.7 0.00 0 79.1 29.99 1.39 72.2 83.5 14.8
UH Manoa Atmospheric Sciences 5/17/24 1915 79.2 84 74.0 3.7 S | 181 8.9 0.00 1 79.2 29.99 1.39 72.2 83.5 14.8
UH Manoa Atmospheric Sciences 5/17/24 1900 79.2 84 73.9 2.5 S | 180 6.9 0.00 7 79.2 29.98 1.39 72.2 83.5 14.8
UH Manoa Atmospheric Sciences 5/17/24 1845 79.2 84 74.1 2.8 S | 178 8.4 0.00 24 79.2 29.98 1.39 72.2 83.5 14.8
UH Manoa Atmospheric Sciences 5/17/24 1830 79.4 84 74.3 4.6 S | 189 8.9 0.00 33 79.4 29.98 1.39 72.2 83.5 14.8
UH Manoa Atmospheric Sciences 5/17/24 1815 79.5 84 74.3 5.9 S | 189 11.5 0.00 89 79.5 29.98 1.39 72.2 83.5 14.8
UH Manoa Atmospheric Sciences 5/17/24 1800 79.6 84 74.4 5.4 SSW | 198 10.2 0.00 62 79.6 29.97 1.39 72.2 83.5 14.8
UH Manoa Atmospheric Sciences 5/17/24 1745 80.0 83 74.5 5.2 S | 187 10.7 0.01 164 81.3 29.97 1.39 72.2 83.5 14.8
UH Manoa Atmospheric Sciences 5/17/24 1730 80.7 80 74.1 4.8 SSW | 208 10.4 0.00 244 85.8 29.96 1.38 72.2 83.5 14.8
UH Manoa Atmospheric Sciences 5/17/24 1715 80.7 79 73.8 5.0 SSW | 194 10.0 0.00 272 85.6 29.96 1.38 72.2 83.5 14.8
UH Manoa Atmospheric Sciences 5/17/24 1700 80.6 79 73.5 4.3 S | 185 9.7 0.00 175 85.4 29.96 1.38 72.2 83.5 14.8
UH Manoa Atmospheric Sciences 5/17/24 1645 81.3 77 73.6 5.2 S | 181 10.3 0.00 332 86.7 29.96 1.38 72.2 83.5 14.8
UH Manoa Atmospheric Sciences 5/17/24 1630 81.4 77 73.6 4.9 S | 186 11.5 0.00 337 86.7 29.96 1.38 72.2 83.5 14.8
UH Manoa Atmospheric Sciences 5/17/24 1615 81.6 77 73.5 5.1 SSW | 197 11.5 0.00 385 87.0 29.96 1.38 72.2 83.5 14.8
UH Manoa Atmospheric Sciences 5/17/24 1600 81.3 76 73.2 6.0 SSW | 192 11.2 0.00 515 86.4 29.96 1.38 72.2 83.5 14.8
UH Manoa Atmospheric Sciences 5/17/24 1545 81.1 78 73.6 6.6 S | 188 12.7 0.00 444 86.3 29.96 1.38 72.2 83.5 14.8
UH Manoa Atmospheric Sciences 5/17/24 1530 81.2 78 73.9 7.1 SSW | 195 13.3 0.00 441 86.6 29.97 1.38 72.2 83.5 14.8
UH Manoa Atmospheric Sciences 5/17/24 1515 81.6 78 74.0 7.1 S | 190 14.0 0.00 630 87.4 29.97 1.38 72.2 83.5 14.8
UH Manoa Atmospheric Sciences 5/17/24 1500 81.9 77 74.0 5.7 S | 183 12.1 0.00 792 87.8 29.97 1.38 72.2 83.5 14.8
UH Manoa Atmospheric Sciences 5/17/24 1445 82.3 77 74.2 3.7 SSE | 156 10.1 0.00 402 88.5 29.97 1.38 72.2 83.5 14.8
UH Manoa Atmospheric Sciences 5/17/24 1430 82.7 77 74.6 2.4 SSE | 153 8.6 0.00 520 89.6 29.97 1.38 72.2 83.4 14.8
UH Manoa Atmospheric Sciences 5/17/24 1415 82.2 78 74.4 5.3 S | 177 12.4 0.00 658 88.5 29.97 1.38 72.2 83.4 14.8
UH Manoa Atmospheric Sciences 5/17/24 1400 81.8 78 74.3 4.8 S | 179 12.0 0.00 527 87.8 29.96 1.38 72.2 83.4 14.8
UH Manoa Atmospheric Sciences 5/17/24 1345 81.6 78 74.2 3.3 SSE | 158 14.4 0.00 423 87.5 29.97 1.38 72.2 83.4 14.8
UH Manoa Atmospheric Sciences 5/17/24 1330 82.0 77 74.2 3.6 S | 172 11.2 0.00 494 88.2 29.97 1.38 72.2 83.4 14.8
UH Manoa Atmospheric Sciences 5/17/24 1315 81.8 78 74.4 3.4 SSE | 156 11.7 0.00 548 87.8 29.97 1.38 72.2 83.4 14.8
UH Manoa Atmospheric Sciences 5/17/24 1300 81.6 78 74.1 4.3 SSE | 155 13.3 0.00 406 87.4 29.97 1.38 72.2 83.4 14.8
UH Manoa Atmospheric Sciences 5/17/24 1245 81.9 78 74.4 5.0 SSE | 155 12.2 0.00 571 88.1 29.98 1.38 72.2 83.4 14.8
UH Manoa Atmospheric Sciences 5/17/24 1230 82.8 77 74.8 3.8 SE | 141 13.0 0.00 815 89.9 29.98 1.38 72.2 83.4 14.8
UH Manoa Atmospheric Sciences 5/17/24 1215 81.8 79 74.8 3.2 SSE | 147 10.4 0.00 597 88.2 29.98 1.38 72.2 82.5 14.8
UH Manoa Atmospheric Sciences 5/17/24 1200 81.4 80 74.7 5.0 S | 183 12.0 0.00 578 87.5 29.99 1.38 72.2 81.9 14.8
UH Manoa Atmospheric Sciences 5/17/24 1145 81.3 81 75.1 3.1 SSE | 160 9.0 0.00 442 87.5 29.99 1.38 72.2 81.7 14.8
UH Manoa Atmospheric Sciences 5/17/24 1130 81.1 83 75.3 3.0 SSE | 157 8.6 0.00 485 87.1 29.99 1.38 72.2 81.4 14.8
UH Manoa Atmospheric Sciences 5/17/24 1115 80.3 84 75.1 5.7 S | 180 14.8 0.00 512 84.5 29.99 1.38 72.2 81.4 14.8
UH Manoa Atmospheric Sciences 5/17/24 1100 80.0 84 74.6 7.2 S | 188 13.0 0.00 226 81.8 29.99 1.38 72.2 81.4 13.0
UH Manoa Atmospheric Sciences 5/17/24 1045 80.6 83 74.9 5.6 S | 185 12.2 0.00 340 85.9 29.99 1.38 72.2 81.4 13.0
UH Manoa Atmospheric Sciences 5/17/24 1030 80.8 82 74.8 5.8 S | 178 12.5 0.01 474 86.3 29.99 1.38 72.2 81.4 13.0
UH Manoa Atmospheric Sciences 5/17/24 1015 80.7 84 75.3 4.4 SSE | 163 12.8 0.00 769 86.3 29.99 1.37 72.2 81.4 13.0
UH Manoa Atmospheric Sciences 5/17/24 1000 80.3 86 75.6 3.5 SE | 146 10.5 0.00 640 84.5 29.99 1.37 72.2 81.1 13.0
UH Manoa Atmospheric Sciences 5/17/24 0945 79.6 88 75.8 3.1 S | 178 7.5 0.00 513 79.6 29.99 1.37 72.2 80.0 13.0
UH Manoa Atmospheric Sciences 5/17/24 0930 78.6 90 75.4 4.4 S | 175 13.0 0.00 414 78.6 29.99 1.37 72.2 79.2 13.0
UH Manoa Atmospheric Sciences 5/17/24 0915 78.1 92 75.4 3.5 S | 169 9.2 0.00 240 78.1 29.99 1.37 72.2 78.4 11.1
UH Manoa Atmospheric Sciences 5/17/24 0900 77.8 93 75.8 3.0 SSE | 166 8.0 0.00 280 77.8 29.99 1.37 72.2 78.3 11.1
UH Manoa Atmospheric Sciences 5/17/24 0845 77.4 95 75.8 2.1 SSE | 158 8.0 0.00 200 77.4 29.99 1.37 72.2 77.8 11.1
UH Manoa Atmospheric Sciences 5/17/24 0830 76.9 96 75.5 2.3 S | 180 11.1 0.00 190 76.9 29.98 1.37 72.2 77.3 11.1
UH Manoa Atmospheric Sciences 5/17/24 0815 76.3 96 75.1 2.4 S | 175 5.9 0.00 147 76.3 29.97 1.37 72.2 76.8 7.7
UH Manoa Atmospheric Sciences 5/17/24 0800 76.1 96 75.0 1.2 SSE | 155 4.9 0.00 45 76.1 29.97 1.37 72.2 76.3 7.7
UH Manoa Atmospheric Sciences 5/17/24 0745 76.0 97 74.9 0.4 ENE | 57 3.0 0.00 31 76.0 29.97 1.37 72.2 76.2 7.7
UH Manoa Atmospheric Sciences 5/17/24 0730 75.7 97 74.8 0.6 ENE | 68 3.6 0.01 58 75.7 29.96 1.37 72.2 76.1 7.7
UH Manoa Atmospheric Sciences 5/17/24 0715 75.3 97 74.4 1.3 ENE | 76 5.6 0.01 45 75.3 29.95 1.36 72.2 75.6 7.7
UH Manoa Atmospheric Sciences 5/17/24 0700 75.0 97 74.1 2.2 ENE | 63 6.1 0.01 22 75.0 29.95 1.35 72.2 75.3 7.7
UH Manoa Atmospheric Sciences 5/17/24 0645 74.7 97 73.9 1.2 ENE | 71 3.1 0.00 40 74.7 29.95 1.34 72.2 75.1 7.7
UH Manoa Atmospheric Sciences 5/17/24 0630 74.2 98 73.5 2.4 NE | 55 5.2 0.00 22 74.2 29.94 1.34 72.2 74.6 7.7
UH Manoa Atmospheric Sciences 5/17/24 0615 73.6 98 73.0 3.0 NNE | 29 5.7 0.00 5 73.6 29.93 1.34 72.2 73.9 7.7
UH Manoa Atmospheric Sciences 5/17/24 0600 73.5 98 72.9 2.7 NNE | 31 5.5 0.00 3 73.5 29.93 1.34 72.2 73.8 7.7
UH Manoa Atmospheric Sciences 5/17/24 0545 73.2 98 72.6 4.7 NNE | 29 7.7 0.01 0 73.2 29.93 1.34 72.2 73.8 7.7
UH Manoa Atmospheric Sciences 5/17/24 0530 73.3 98 72.8 3.1 NE | 36 7.5 0.16 0 73.3 29.93 1.33 72.2 73.8 7.5
UH Manoa Atmospheric Sciences 5/17/24 0515 73.2 98 72.7 0.8 E | 80 2.5 0.06 0 73.2 29.93 1.17 72.2 73.8 7.5
UH Manoa Atmospheric Sciences 5/17/24 0500 73.1 98 72.5 1.0 ESE | 118 4.4 0.01 0 73.1 29.93 1.11 72.2 73.8 7.5
UH Manoa Atmospheric Sciences 5/17/24 0445 73.0 98 72.4 3.5 NNE | 29 6.6 0.10 0 73.0 29.92 1.10 72.2 73.8 7.5
UH Manoa Atmospheric Sciences 5/17/24 0430 72.9 98 72.3 3.9 NE | 37 6.8 0.01 0 72.9 29.91 1.00 72.2 73.8 7.5
UH Manoa Atmospheric Sciences 5/17/24 0415 72.9 98 72.3 2.4 NNE | 31 6.3 0.01 0 72.9 29.91 0.99 72.2 73.8 7.5
UH Manoa Atmospheric Sciences 5/17/24 0400 72.8 98 72.2 1.9 NNE | 28 4.2 0.03 0 72.8 29.91 0.98 72.2 73.8 7.5
UH Manoa Atmospheric Sciences 5/17/24 0345 72.6 98 72.1 2.8 NNE | 25 5.4 0.02 0 72.6 29.91 0.95 72.2 73.8 7.5
UH Manoa Atmospheric Sciences 5/17/24 0330 72.5 98 72.0 3.8 NE | 36 6.4 0.05 0 72.5 29.91 0.93 72.2 73.8 7.5
UH Manoa Atmospheric Sciences 5/17/24 0315 72.5 98 71.9 1.8 NW | 307 4.6 0.09 0 72.5 29.91 0.88 72.2 73.8 7.5
UH Manoa Atmospheric Sciences 5/17/24 0300 72.4 98 71.8 0.8 E | 101 2.6 0.04 0 72.4 29.91 0.79 72.2 73.8 7.5
UH Manoa Atmospheric Sciences 5/17/24 0245 72.4 98 71.7 0.8 NW | 321 4.5 0.00 0 72.4 29.91 0.75 72.2 73.8 7.5
UH Manoa Atmospheric Sciences 5/17/24 0230 72.3 98 71.6 1.9 SSW | 205 6.5 0.06 0 72.3 29.92 0.75 72.2 73.8 7.5
UH Manoa Atmospheric Sciences 5/17/24 0215 73.1 98 72.4 2.8 SW | 218 7.5 0.05 0 73.1 29.92 0.69 72.3 73.8 7.5
Max     82.8 98 75.8 7.2 - 14.8 0.16 815 89.9 30.04 1.39 76.0 83.5 14.8
Avg     77.8 88 73.9 3.4 - 8.0 0.01 182 79.6 29.98 - - - -
Min     72.3 76 71.6 0.3 - 2.2 0.00 0 72.3 29.91 0.00 72.2 73.8 2.2